createdAt,value
2019-04-11T00:00:57.562Z,6.30
2019-04-11T00:03:27.341Z,6.20
2019-04-11T00:05:57.123Z,6.20
2019-04-11T00:08:27.952Z,6.20
2019-04-11T00:10:57.708Z,6.20
2019-04-11T00:13:29.942Z,6.10
2019-04-11T00:15:59.375Z,6.00
2019-04-11T00:18:28.995Z,6.00
2019-04-11T00:20:58.605Z,6.00
2019-04-11T00:23:28.241Z,6.00
2019-04-11T00:25:58.093Z,6.00
2019-04-11T00:28:27.896Z,5.90
2019-04-11T00:30:58.698Z,5.90
2019-04-11T00:33:28.591Z,5.90
2019-04-11T00:35:58.270Z,5.90
2019-04-11T00:38:28.019Z,5.90
2019-04-11T00:40:57.652Z,5.90
2019-04-11T00:43:34.288Z,5.90
2019-04-11T00:45:58.830Z,5.80
2019-04-11T00:48:28.587Z,5.80
2019-04-11T00:50:59.257Z,5.80
2019-04-11T00:53:29.863Z,5.80
2019-04-11T00:55:59.887Z,5.70
2019-04-11T00:58:29.753Z,5.70
2019-04-11T01:00:59.774Z,5.70
2019-04-11T01:03:30.434Z,5.80
2019-04-11T01:05:59.976Z,5.70
2019-04-11T01:08:29.595Z,5.70
2019-04-11T01:10:59.476Z,5.80
2019-04-11T01:13:39.736Z,5.80
2019-04-11T01:16:06.988Z,5.70
2019-04-11T01:18:36.747Z,5.70
2019-04-11T01:21:06.329Z,5.70
2019-04-11T01:23:35.954Z,5.70
2019-04-11T01:26:05.573Z,5.60
2019-04-11T01:28:35.190Z,5.60
2019-04-11T01:31:06.455Z,5.60
2019-04-11T01:33:36.161Z,5.60
2019-04-11T01:36:06.891Z,5.50
2019-04-11T01:38:38.718Z,5.60
2019-04-11T01:41:08.239Z,5.50
2019-04-11T01:43:37.905Z,5.60
2019-04-11T01:46:07.778Z,5.60
2019-04-11T01:48:39.621Z,5.50
2019-04-11T01:51:09.641Z,5.50
2019-04-11T01:53:40.991Z,5.40
2019-04-11T01:56:10.773Z,5.40
2019-04-11T01:58:40.640Z,5.40
2019-04-11T02:01:21.375Z,5.40
2019-04-11T02:03:52.792Z,5.40
2019-04-11T02:06:23.574Z,5.40
2019-04-11T02:08:53.473Z,5.40
2019-04-11T02:11:23.496Z,5.40
2019-04-11T02:14:05.083Z,5.30
2019-04-11T02:16:25.205Z,5.40
2019-04-11T02:18:56.073Z,5.40
2019-04-11T02:21:25.893Z,5.30
2019-04-11T02:23:57.299Z,5.30
2019-04-11T02:26:29.344Z,5.30
2019-04-11T02:28:59.371Z,5.30
2019-04-11T02:31:30.606Z,5.30
2019-04-11T02:34:02.440Z,5.20
2019-04-11T02:36:34.138Z,5.30
2019-04-11T02:39:11.761Z,5.30
2019-04-11T02:41:39.586Z,5.30
2019-04-11T02:44:28.660Z,5.30
2019-04-11T02:46:47.900Z,5.30
2019-04-11T02:49:11.614Z,5.20
2019-04-11T02:51:42.817Z,5.20
2019-04-11T02:54:15.698Z,5.10
2019-04-11T02:56:45.593Z,5.10
2019-04-11T02:59:17.688Z,5.10
2019-04-11T03:01:48.631Z,5.10
2019-04-11T03:04:20.296Z,5.10
2019-04-11T03:06:51.963Z,5.10
2019-04-11T03:09:23.725Z,5.10
2019-04-11T03:11:54.655Z,5.00
2019-04-11T03:14:25.143Z,5.00
2019-04-11T03:17:02.458Z,5.00
2019-04-11T03:19:42.420Z,5.00
2019-04-11T03:21:59.406Z,5.00
2019-04-11T03:24:31.612Z,5.00
2019-04-11T03:27:04.567Z,5.00
2019-04-11T03:29:33.821Z,5.00
2019-04-11T03:32:36.919Z,5.00
2019-04-11T03:35:20.725Z,5.00
2019-04-11T03:37:26.094Z,5.00
2019-04-11T03:39:59.241Z,4.90
2019-04-11T03:42:29.678Z,5.00
2019-04-11T03:44:47.281Z,5.00
2019-04-11T03:47:27.731Z,4.90
2019-04-11T03:49:52.110Z,4.90
2019-04-11T03:52:17.187Z,4.90
2019-04-11T03:54:49.552Z,4.90
2019-04-11T03:57:21.510Z,4.90
2019-04-11T03:59:52.055Z,4.90
2019-04-11T04:02:22.580Z,5.00
2019-04-11T04:04:54.224Z,4.90
2019-04-11T04:07:24.231Z,4.90
2019-04-11T04:09:54.516Z,4.90
2019-04-11T04:12:27.171Z,4.80
2019-04-11T04:14:59.261Z,4.70
2019-04-11T04:17:49.899Z,4.70
2019-04-11T04:20:42.035Z,4.70
2019-04-11T04:23:14.185Z,4.60
2019-04-11T04:25:47.040Z,4.60
2019-04-11T04:28:15.932Z,4.70
2019-04-11T04:30:46.987Z,4.70
2019-04-11T04:33:17.202Z,4.60
2019-04-11T04:35:49.636Z,4.60
2019-04-11T04:38:21.102Z,4.70
2019-04-11T04:41:08.869Z,4.60
2019-04-11T04:43:24.964Z,4.60
2019-04-11T04:46:13.682Z,4.60
2019-04-11T04:48:27.217Z,4.50
2019-04-11T04:51:01.668Z,4.50
2019-04-11T04:53:30.807Z,4.50
2019-04-11T04:56:02.531Z,4.50
2019-04-11T04:58:33.770Z,4.50
2019-04-11T05:01:05.758Z,4.40
2019-04-11T05:03:34.919Z,4.40
2019-04-11T05:06:04.795Z,4.40
2019-04-11T05:08:34.812Z,4.40
2019-04-11T05:11:04.768Z,4.40
2019-04-11T05:13:34.661Z,4.40
2019-04-11T05:16:15.105Z,4.40
2019-04-11T05:18:37.453Z,4.40
2019-04-11T05:21:07.234Z,4.40
2019-04-11T05:23:37.427Z,4.50
2019-04-11T05:26:08.899Z,4.40
2019-04-11T05:28:39.350Z,4.40
2019-04-11T05:31:10.181Z,4.40
2019-04-11T05:33:40.120Z,4.40
2019-04-11T05:36:10.183Z,4.40
2019-04-11T05:38:40.072Z,4.30
2019-04-11T05:41:12.209Z,4.40
2019-04-11T05:43:41.744Z,4.30
2019-04-11T05:46:26.338Z,4.40
2019-04-11T05:49:03.870Z,4.40
2019-04-11T05:51:40.953Z,4.40
2019-04-11T05:54:08.042Z,4.40
2019-04-11T05:56:38.810Z,4.50
2019-04-11T05:59:10.113Z,4.50
2019-04-11T06:01:42.526Z,4.50
2019-04-11T06:04:16.144Z,4.50
2019-04-11T06:06:50.628Z,4.60
2019-04-11T06:09:22.964Z,4.50
2019-04-11T06:11:57.985Z,4.50
2019-04-11T06:14:33.111Z,4.60
2019-04-11T06:17:05.184Z,4.60
2019-04-11T06:19:39.708Z,4.60
2019-04-11T06:22:10.830Z,4.60
2019-04-11T06:24:56.442Z,4.60
2019-04-11T06:27:28.492Z,4.70
2019-04-11T06:30:03.383Z,4.60
2019-04-11T06:32:38.380Z,4.60
2019-04-11T06:35:22.071Z,4.70
2019-04-11T06:38:10.104Z,4.70
2019-04-11T06:40:44.453Z,4.70
2019-04-11T06:43:18.679Z,4.70
2019-04-11T06:45:49.986Z,4.70
2019-04-11T06:48:27.441Z,4.80
2019-04-11T06:51:01.876Z,4.90
2019-04-11T06:53:34.109Z,4.90
2019-04-11T06:56:14.904Z,5.00
2019-04-11T06:58:46.246Z,4.90
2019-04-11T07:01:20.522Z,5.00
2019-04-11T07:03:51.875Z,5.00
2019-04-11T07:06:23.858Z,5.10
2019-04-11T07:08:58.902Z,5.10
2019-04-11T07:11:45.499Z,5.20
2019-04-11T07:14:25.398Z,5.20
2019-04-11T07:17:13.784Z,5.30
2019-04-11T07:20:04.450Z,5.30
2019-04-11T07:22:52.221Z,5.30
2019-04-11T07:25:23.566Z,5.30
2019-04-11T07:28:12.982Z,5.40
2019-04-11T07:31:00.541Z,5.50
2019-04-11T07:33:33.118Z,5.50
2019-04-11T07:36:21.166Z,5.50
2019-04-11T07:39:07.959Z,5.60
2019-04-11T07:41:41.044Z,5.60
2019-04-11T07:44:26.858Z,5.70
2019-04-11T07:47:18.818Z,5.70
2019-04-11T07:49:46.434Z,5.70
2019-04-11T07:52:17.597Z,5.70
2019-04-11T07:54:47.754Z,5.70
2019-04-11T07:57:36.207Z,5.70
2019-04-11T08:00:12.729Z,5.80
2019-04-11T08:02:53.309Z,5.80
2019-04-11T08:05:40.898Z,5.80
2019-04-11T08:08:15.428Z,5.90
2019-04-11T08:10:50.557Z,6.00
2019-04-11T08:13:38.813Z,6.00
2019-04-11T08:16:26.744Z,6.00
2019-04-11T08:19:04.176Z,6.00
2019-04-11T08:21:52.543Z,6.00
2019-04-11T08:24:40.578Z,6.00
2019-04-11T08:27:28.065Z,6.10
2019-04-11T08:30:00.363Z,6.10
2019-04-11T08:32:51.946Z,6.20
2019-04-11T08:35:36.499Z,6.20
2019-04-11T08:38:12.486Z,6.30
2019-04-11T08:40:45.065Z,6.30
2019-04-11T08:43:26.872Z,6.40
2019-04-11T08:45:58.322Z,6.40
2019-04-11T08:48:29.865Z,6.50
2019-04-11T08:51:08.210Z,6.60
2019-04-11T08:53:44.823Z,6.60
2019-04-11T08:56:16.411Z,6.70
2019-04-11T08:59:30.946Z,6.70
2019-04-11T09:02:02.696Z,6.80
2019-04-11T09:04:50.390Z,6.90
2019-04-11T09:07:29.691Z,7.00
2019-04-11T09:10:17.932Z,7.10
2019-04-11T09:12:58.565Z,7.10
2019-04-11T09:15:46.087Z,7.20
2019-04-11T09:18:17.736Z,7.20
2019-04-11T09:20:49.145Z,7.30
2019-04-11T09:23:19.761Z,7.30
2019-04-11T09:26:01.626Z,7.40
2019-04-11T09:28:34.181Z,7.50
2019-04-11T09:31:12.186Z,7.50
2019-04-11T09:33:42.398Z,7.60
2019-04-11T09:36:30.636Z,7.60
2019-04-11T09:39:19.266Z,7.70
2019-04-11T09:42:07.207Z,7.70
2019-04-11T09:44:48.907Z,7.70
2019-04-11T09:47:21.854Z,7.70
2019-04-11T09:50:09.857Z,7.80
2019-04-11T09:52:47.439Z,7.90
2019-04-11T09:55:35.320Z,8.00
2019-04-11T09:58:06.734Z,8.00
2019-04-11T10:00:45.231Z,8.00
2019-04-11T10:03:23.456Z,8.00
2019-04-11T10:05:55.219Z,8.10
2019-04-11T10:08:39.603Z,8.10
2019-04-11T10:11:13.980Z,8.10
2019-04-11T10:13:55.307Z,8.20
2019-04-11T10:16:28.255Z,8.30
2019-04-11T10:19:03.390Z,8.40
2019-04-11T10:21:35.165Z,8.40
2019-04-11T10:24:07.337Z,8.40
2019-04-11T10:26:52.031Z,8.50
2019-04-11T10:29:33.380Z,8.50
2019-04-11T10:32:04.124Z,8.70
2019-04-11T10:34:35.582Z,8.70
2019-04-11T10:37:07.539Z,8.80
2019-04-11T10:39:54.099Z,8.70
2019-04-11T10:42:24.831Z,8.80
2019-04-11T10:45:02.731Z,8.80
2019-04-11T10:47:34.238Z,8.80
2019-04-11T10:50:15.474Z,8.80
2019-04-11T10:52:48.837Z,8.80
2019-04-11T10:55:23.301Z,8.80
2019-04-11T10:58:06.866Z,8.80
2019-04-11T11:00:40.874Z,8.80
2019-04-11T11:03:22.048Z,8.90
2019-04-11T11:05:53.605Z,8.90
2019-04-11T11:08:25.670Z,9.00
2019-04-11T11:10:57.745Z,9.00
2019-04-11T11:13:43.902Z,9.00
2019-04-11T11:16:13.941Z,9.00
2019-04-11T11:19:20.674Z,9.10
2019-04-11T11:21:25.965Z,9.10
2019-04-11T11:24:05.386Z,9.10
2019-04-11T11:26:33.968Z,9.10
2019-04-11T11:29:10.412Z,9.10
2019-04-11T11:31:38.691Z,9.00
2019-04-11T11:34:15.686Z,9.00
2019-04-11T11:36:50.444Z,9.00
2019-04-11T11:39:24.761Z,9.00
2019-04-11T11:42:12.650Z,9.00
2019-04-11T11:44:44.705Z,9.10
2019-04-11T11:47:35.698Z,9.00
2019-04-11T11:50:07.426Z,9.00
2019-04-11T11:52:42.460Z,8.90
2019-04-11T11:55:19.021Z,8.80
2019-04-11T11:57:55.799Z,8.80
2019-04-11T12:00:27.204Z,8.80
2019-04-11T12:03:02.425Z,8.80
2019-04-11T12:05:36.661Z,8.80
2019-04-11T12:08:10.784Z,8.80
2019-04-11T12:10:41.663Z,8.90
2019-04-11T12:13:30.362Z,8.80
2019-04-11T12:16:07.939Z,8.80
2019-04-11T12:18:54.297Z,8.90
2019-04-11T12:21:29.722Z,8.90
2019-04-11T12:24:05.602Z,8.90
2019-04-11T12:26:33.969Z,8.90
2019-04-11T12:29:20.176Z,8.90
2019-04-11T12:31:52.311Z,8.90
2019-04-11T12:34:24.071Z,8.90
2019-04-11T12:36:54.827Z,8.90
2019-04-11T12:39:44.839Z,8.90
2019-04-11T12:42:22.045Z,8.90
2019-04-11T12:45:10.039Z,8.80
2019-04-11T12:47:40.090Z,8.80
2019-04-11T12:50:23.871Z,8.80
2019-04-11T12:52:55.200Z,8.80
2019-04-11T12:55:26.494Z,8.80
2019-04-11T12:58:12.842Z,8.70
2019-04-11T13:00:59.304Z,8.70
2019-04-11T13:03:39.521Z,8.80
2019-04-11T13:06:34.834Z,8.80
2019-04-11T13:09:15.279Z,8.90
2019-04-11T13:11:55.545Z,8.90
2019-04-11T13:14:36.148Z,9.00
2019-04-11T13:17:10.288Z,9.00
2019-04-11T13:20:04.570Z,9.00
2019-04-11T13:22:30.746Z,8.90
2019-04-11T13:25:02.364Z,9.00
2019-04-11T13:27:33.871Z,9.00
2019-04-11T13:30:24.520Z,9.10
2019-04-11T13:32:56.275Z,9.10
2019-04-11T13:35:37.313Z,9.20
2019-04-11T13:38:09.085Z,9.20
2019-04-11T13:40:46.942Z,9.20
2019-04-11T13:43:21.481Z,9.10
2019-04-11T13:45:53.803Z,9.10
2019-04-11T13:48:41.976Z,9.00
2019-04-11T13:51:14.251Z,9.00
2019-04-11T13:54:02.043Z,9.00
2019-04-11T13:56:33.367Z,9.00
2019-04-11T13:59:13.803Z,9.00
2019-04-11T14:01:51.078Z,9.00
2019-04-11T14:04:22.372Z,9.00
2019-04-11T14:06:52.530Z,9.00
2019-04-11T14:09:30.741Z,9.10
2019-04-11T14:12:04.860Z,9.10
2019-04-11T14:14:32.964Z,9.10
2019-04-11T14:17:05.561Z,9.00
2019-04-11T14:19:53.254Z,9.00
2019-04-11T14:22:28.997Z,9.00
2019-04-11T14:24:57.816Z,9.00
2019-04-11T14:27:28.874Z,9.00
2019-04-11T14:30:00.163Z,9.10
2019-04-11T14:32:31.473Z,9.10
2019-04-11T14:35:08.618Z,9.10
2019-04-11T14:37:42.932Z,9.20
2019-04-11T14:40:29.615Z,9.30
2019-04-11T14:43:03.961Z,9.40
2019-04-11T14:45:36.745Z,9.60
2019-04-11T14:48:14.563Z,9.70
2019-04-11T14:51:04.021Z,9.70
2019-04-11T14:53:39.542Z,9.80
2019-04-11T14:56:10.821Z,9.90
2019-04-11T14:58:42.462Z,9.90
2019-04-11T15:01:19.751Z,10.00
2019-04-11T15:03:51.000Z,10.00
2019-04-11T15:06:25.088Z,10.00
2019-04-11T15:08:56.440Z,10.00
2019-04-11T15:11:33.733Z,10.00
2019-04-11T15:14:17.681Z,9.90
2019-04-11T15:16:55.202Z,9.90
2019-04-11T15:19:24.959Z,10.00
2019-04-11T15:22:03.969Z,10.00
2019-04-11T15:24:37.481Z,10.00
2019-04-11T15:27:22.993Z,9.90
2019-04-11T15:29:54.142Z,9.80
2019-04-11T15:32:40.704Z,9.80
2019-04-11T15:35:10.439Z,9.70
2019-04-11T15:37:58.095Z,9.70
2019-04-11T15:40:27.864Z,9.60
2019-04-11T15:43:02.119Z,9.50
2019-04-11T15:45:33.633Z,9.40
2019-04-11T15:48:17.817Z,9.30
2019-04-11T15:51:06.981Z,9.30
2019-04-11T15:53:41.546Z,9.30
2019-04-11T15:56:29.952Z,9.10
2019-04-11T15:59:04.280Z,9.10
2019-04-11T16:01:52.100Z,9.10
2019-04-11T16:04:29.610Z,9.10
2019-04-11T16:07:13.466Z,9.20
2019-04-11T16:09:57.038Z,9.20
2019-04-11T16:12:29.391Z,9.30
2019-04-11T16:15:18.788Z,9.30
2019-04-11T16:18:06.618Z,9.30
2019-04-11T16:20:36.627Z,9.30
2019-04-11T16:23:16.891Z,9.20
2019-04-11T16:25:48.187Z,9.00
2019-04-11T16:28:20.612Z,8.90
2019-04-11T16:30:57.849Z,8.80
2019-04-11T16:33:47.150Z,8.80
2019-04-11T16:36:18.438Z,8.80
2019-04-11T16:38:50.410Z,8.80
2019-04-11T16:41:39.403Z,8.80
2019-04-11T16:44:26.980Z,8.80
2019-04-11T16:47:04.312Z,8.70
2019-04-11T16:49:34.123Z,8.70
2019-04-11T16:52:07.384Z,8.60
2019-04-11T16:54:35.211Z,8.60
2019-04-11T16:57:05.134Z,8.50
2019-04-11T16:59:35.260Z,8.50
2019-04-11T17:02:05.319Z,8.40
2019-04-11T17:04:36.274Z,8.30
2019-04-11T17:07:07.558Z,8.20
2019-04-11T17:09:38.899Z,8.20
2019-04-11T17:12:09.630Z,8.10
2019-04-11T17:14:39.395Z,7.90
2019-04-11T17:17:14.988Z,7.90
2019-04-11T17:19:40.543Z,7.80
2019-04-11T17:22:10.259Z,7.80
2019-04-11T17:24:40.012Z,7.70
2019-04-11T17:27:09.730Z,7.70
2019-04-11T17:29:39.464Z,7.60
2019-04-11T17:32:09.192Z,7.50
2019-04-11T17:34:38.903Z,7.50
2019-04-11T17:37:08.670Z,7.50
2019-04-11T17:39:38.311Z,7.40
2019-04-11T17:42:13.277Z,7.30
2019-04-11T17:44:42.344Z,7.40
2019-04-11T17:47:12.089Z,7.30
2019-04-11T17:49:41.801Z,7.30
2019-04-11T17:52:11.518Z,7.20
2019-04-11T17:54:41.239Z,7.10
2019-04-11T17:57:10.989Z,7.10
2019-04-11T17:59:40.716Z,7.10
2019-04-11T18:02:11.146Z,7.00
2019-04-11T18:04:44.063Z,7.00
2019-04-11T18:07:16.871Z,7.00
2019-04-11T18:09:44.012Z,7.00
2019-04-11T18:12:14.814Z,7.00
2019-04-11T18:14:44.536Z,6.90
2019-04-11T18:17:16.478Z,6.80
2019-04-11T18:19:45.914Z,6.80
2019-04-11T18:22:15.700Z,6.80
2019-04-11T18:24:45.409Z,6.80
2019-04-11T18:27:15.089Z,6.80
2019-04-11T18:29:44.802Z,6.80
2019-04-11T18:32:15.549Z,6.80
2019-04-11T18:34:45.286Z,6.70
2019-04-11T18:37:15.048Z,6.80
2019-04-11T18:39:44.777Z,6.70
2019-04-11T18:42:14.514Z,6.70
2019-04-11T18:44:44.339Z,6.70
2019-04-11T18:47:14.051Z,6.70
2019-04-11T18:49:43.794Z,6.60
2019-04-11T18:52:29.130Z,6.60
2019-04-11T18:54:59.039Z,6.60
2019-04-11T18:57:29.042Z,6.60
2019-04-11T18:59:58.750Z,6.60
2019-04-11T19:02:28.471Z,6.60
2019-04-11T19:04:58.216Z,6.60
2019-04-11T19:07:28.299Z,6.60
2019-04-11T19:09:58.036Z,6.50
2019-04-11T19:12:28.802Z,6.50
2019-04-11T19:14:58.517Z,6.40
2019-04-11T19:17:30.299Z,6.40
2019-04-11T19:19:59.510Z,6.40
2019-04-11T19:22:37.430Z,6.30
2019-04-11T19:25:00.634Z,6.30
2019-04-11T19:27:30.350Z,6.30
2019-04-11T19:30:00.243Z,6.30
2019-04-11T19:32:29.966Z,6.20
2019-04-11T19:34:59.697Z,6.20
2019-04-11T19:37:29.342Z,6.20
2019-04-11T19:39:59.063Z,6.20
2019-04-11T19:42:28.919Z,6.20
2019-04-11T19:44:58.636Z,6.20
2019-04-11T19:47:28.377Z,6.10
2019-04-11T19:49:58.831Z,6.10
2019-04-11T19:52:29.920Z,6.10
2019-04-11T19:55:04.665Z,6.10
2019-04-11T19:57:33.303Z,6.00
2019-04-11T20:00:05.961Z,6.00
2019-04-11T20:02:38.963Z,6.00
2019-04-11T20:05:12.138Z,6.00
2019-04-11T20:07:41.455Z,6.10
2019-04-11T20:10:11.202Z,6.00
2019-04-11T20:12:40.906Z,5.90
2019-04-11T20:15:10.547Z,5.80
2019-04-11T20:17:44.545Z,5.80
2019-04-11T20:20:11.630Z,5.80
2019-04-11T20:22:41.348Z,5.80
2019-04-11T20:25:11.099Z,5.70
2019-04-11T20:27:42.090Z,5.70
2019-04-11T20:30:11.942Z,5.70
2019-04-11T20:32:41.641Z,5.70
2019-04-11T20:35:11.362Z,5.70
2019-04-11T20:37:44.435Z,5.70
2019-04-11T20:40:17.364Z,5.70
2019-04-11T20:42:44.598Z,5.70
2019-04-11T20:45:14.407Z,5.60
2019-04-11T20:47:44.162Z,5.60
2019-04-11T20:50:13.866Z,5.60
2019-04-11T20:52:43.590Z,5.60
2019-04-11T20:55:13.342Z,5.50
2019-04-11T20:57:43.050Z,5.50
2019-04-11T21:00:13.121Z,5.50
2019-04-11T21:02:42.807Z,5.30
2019-04-11T21:05:12.521Z,5.40
2019-04-11T21:07:42.234Z,5.30
2019-04-11T21:10:11.959Z,5.30
2019-04-11T21:12:42.482Z,5.30
2019-04-11T21:15:12.186Z,5.30
2019-04-11T21:17:41.858Z,5.30
2019-04-11T21:20:11.669Z,5.30
2019-04-11T21:22:41.399Z,5.20
2019-04-11T21:25:11.391Z,5.20
2019-04-11T21:27:41.150Z,5.30
2019-04-11T21:30:11.480Z,5.20
2019-04-11T21:32:41.233Z,5.20
2019-04-11T21:35:11.338Z,5.20
2019-04-11T21:37:41.010Z,5.20
2019-04-11T21:40:10.934Z,5.10
2019-04-11T21:42:40.664Z,5.10
2019-04-11T21:45:10.482Z,5.10
2019-04-11T21:47:40.195Z,5.10
2019-04-11T21:50:10.358Z,5.10
2019-04-11T21:52:43.423Z,5.10
2019-04-11T21:55:16.040Z,5.10
2019-04-11T21:57:48.429Z,5.00
2019-04-11T22:00:26.380Z,5.00
2019-04-11T22:02:57.742Z,5.00
2019-04-11T22:05:29.209Z,4.90
2019-04-11T22:08:00.945Z,4.90
2019-04-11T22:10:30.586Z,4.90
2019-04-11T22:13:04.359Z,4.90
2019-04-11T22:15:34.118Z,4.80
2019-04-11T22:18:04.927Z,4.80
2019-04-11T22:20:34.704Z,4.70
2019-04-11T22:23:04.423Z,4.70
2019-04-11T22:25:34.169Z,4.70
2019-04-11T22:28:03.866Z,4.70
2019-04-11T22:30:33.598Z,4.70
2019-04-11T22:33:04.878Z,4.70
2019-04-11T22:35:34.594Z,4.70
2019-04-11T22:38:04.289Z,4.60
2019-04-11T22:40:33.996Z,4.60
2019-04-11T22:43:07.531Z,4.50
2019-04-11T22:45:37.671Z,4.50
2019-04-11T22:48:08.452Z,4.50
2019-04-11T22:50:40.452Z,4.50
2019-04-11T22:53:12.867Z,4.50
2019-04-11T22:55:41.246Z,4.40
2019-04-11T22:58:13.700Z,4.40
2019-04-11T23:00:45.788Z,4.40
2019-04-11T23:03:17.050Z,4.50
2019-04-11T23:05:47.525Z,4.40
2019-04-11T23:08:19.226Z,4.40
2019-04-11T23:10:48.760Z,4.40
2019-04-11T23:13:18.515Z,4.40
2019-04-11T23:15:48.251Z,4.40
2019-04-11T23:18:18.002Z,4.40
2019-04-11T23:20:47.714Z,4.40
2019-04-11T23:23:17.358Z,4.40
2019-04-11T23:25:47.238Z,4.40
2019-04-11T23:28:16.990Z,4.40
2019-04-11T23:30:49.580Z,4.40
2019-04-11T23:33:19.023Z,4.40
2019-04-11T23:35:51.189Z,4.40
2019-04-11T23:38:23.672Z,4.40
2019-04-11T23:40:52.150Z,4.30
2019-04-11T23:43:21.833Z,4.30
2019-04-11T23:45:51.835Z,4.30
2019-04-11T23:48:23.741Z,4.30
2019-04-11T23:50:55.110Z,4.30
2019-04-11T23:53:28.370Z,4.30
2019-04-11T23:55:55.633Z,4.30
2019-04-11T23:58:27.011Z,4.30
